sensor_id;sensor_type;location;lat;lon;timestamp;P1;durP1;ratioP1;P2;durP2;ratioP2
10481;SDS011;5288;42.334;23.876;2023-12-14T00:00:46;33.77;;;21.53;;
10481;SDS011;5288;42.334;23.876;2023-12-14T00:03:13;76.07;;;43.53;;
10481;SDS011;5288;42.334;23.876;2023-12-14T00:05:40;48.20;;;29.23;;
10481;SDS011;5288;42.334;23.876;2023-12-14T00:08:09;40.57;;;25.13;;
10481;SDS011;5288;42.334;23.876;2023-12-14T00:10:36;31.00;;;17.67;;
10481;SDS011;5288;42.334;23.876;2023-12-14T00:13:03;44.17;;;24.13;;
10481;SDS011;5288;42.334;23.876;2023-12-14T00:15:33;40.27;;;25.77;;
10481;SDS011;5288;42.334;23.876;2023-12-14T00:18:00;32.37;;;19.80;;
10481;SDS011;5288;42.334;23.876;2023-12-14T00:20:27;25.33;;;15.73;;
10481;SDS011;5288;42.334;23.876;2023-12-14T00:22:54;27.17;;;16.27;;
10481;SDS011;5288;42.334;23.876;2023-12-14T00:25:23;21.40;;;13.83;;
10481;SDS011;5288;42.334;23.876;2023-12-14T00:27:50;18.17;;;12.57;;
10481;SDS011;5288;42.334;23.876;2023-12-14T00:30:17;16.20;;;10.57;;
10481;SDS011;5288;42.334;23.876;2023-12-14T00:32:44;22.67;;;17.17;;
10481;SDS011;5288;42.334;23.876;2023-12-14T00:35:11;22.10;;;14.07;;
10481;SDS011;5288;42.334;23.876;2023-12-14T00:37:39;20.30;;;13.57;;
10481;SDS011;5288;42.334;23.876;2023-12-14T00:40:06;16.80;;;12.67;;
10481;SDS011;5288;42.334;23.876;2023-12-14T00:42:35;16.73;;;12.30;;
10481;SDS011;5288;42.334;23.876;2023-12-14T00:45:03;18.93;;;13.37;;
10481;SDS011;5288;42.334;23.876;2023-12-14T00:47:30;23.97;;;17.93;;
10481;SDS011;5288;42.334;23.876;2023-12-14T00:49:58;26.17;;;18.80;;
10481;SDS011;5288;42.334;23.876;2023-12-14T00:52:25;17.93;;;13.47;;
10481;SDS011;5288;42.334;23.876;2023-12-14T00:54:52;17.93;;;12.47;;
10481;SDS011;5288;42.334;23.876;2023-12-14T00:57:19;102.97;;;73.50;;
10481;SDS011;5288;42.334;23.876;2023-12-14T00:59:48;45.03;;;32.57;;
10481;SDS011;5288;42.334;23.876;2023-12-14T01:02:15;32.63;;;25.57;;
10481;SDS011;5288;42.334;23.876;2023-12-14T01:04:42;26.50;;;19.63;;
10481;SDS011;5288;42.334;23.876;2023-12-14T01:07:10;27.23;;;19.40;;
10481;SDS011;5288;42.334;23.876;2023-12-14T01:09:37;24.63;;;19.57;;
10481;SDS011;5288;42.334;23.876;2023-12-14T01:12:05;46.33;;;36.60;;
10481;SDS011;5288;42.334;23.876;2023-12-14T01:14:32;17.63;;;12.70;;
10481;SDS011;5288;42.334;23.876;2023-12-14T01:17:01;26.87;;;19.77;;
10481;SDS011;5288;42.334;23.876;2023-12-14T01:19:29;19.10;;;14.30;;
10481;SDS011;5288;42.334;23.876;2023-12-14T01:21:56;28.00;;;21.03;;
10481;SDS011;5288;42.334;23.876;2023-12-14T01:24:23;25.33;;;17.47;;
10481;SDS011;5288;42.334;23.876;2023-12-14T01:26:50;23.70;;;16.23;;
10481;SDS011;5288;42.334;23.876;2023-12-14T01:29:18;23.33;;;15.07;;
10481;SDS011;5288;42.334;23.876;2023-12-14T01:31:45;57.23;;;43.07;;
10481;SDS011;5288;42.334;23.876;2023-12-14T01:34:14;55.13;;;33.67;;
10481;SDS011;5288;42.334;23.876;2023-12-14T01:36:41;24.20;;;17.67;;
10481;SDS011;5288;42.334;23.876;2023-12-14T01:39:08;24.87;;;15.03;;
10481;SDS011;5288;42.334;23.876;2023-12-14T01:41:35;17.70;;;12.40;;
10481;SDS011;5288;42.334;23.876;2023-12-14T01:44:03;51.37;;;31.13;;
10481;SDS011;5288;42.334;23.876;2023-12-14T01:46:30;25.90;;;16.20;;
10481;SDS011;5288;42.334;23.876;2023-12-14T01:48:57;21.07;;;14.50;;
10481;SDS011;5288;42.334;23.876;2023-12-14T01:51:26;32.43;;;23.90;;
10481;SDS011;5288;42.334;23.876;2023-12-14T01:53:53;23.47;;;16.03;;
10481;SDS011;5288;42.334;23.876;2023-12-14T01:56:20;37.53;;;28.13;;
10481;SDS011;5288;42.334;23.876;2023-12-14T01:58:47;38.23;;;26.47;;
10481;SDS011;5288;42.334;23.876;2023-12-14T02:01:18;19.17;;;12.97;;
10481;SDS011;5288;42.334;23.876;2023-12-14T02:03:50;19.07;;;13.67;;
10481;SDS011;5288;42.334;23.876;2023-12-14T02:06:19;28.07;;;19.47;;
10481;SDS011;5288;42.334;23.876;2023-12-14T02:08:48;28.77;;;17.90;;
10481;SDS011;5288;42.334;23.876;2023-12-14T02:11:16;21.37;;;13.70;;
10481;SDS011;5288;42.334;23.876;2023-12-14T02:13:43;27.63;;;17.10;;
10481;SDS011;5288;42.334;23.876;2023-12-14T02:16:10;32.53;;;23.97;;
10481;SDS011;5288;42.334;23.876;2023-12-14T02:18:37;17.33;;;12.63;;
10481;SDS011;5288;42.334;23.876;2023-12-14T02:21:04;17.13;;;10.93;;
10481;SDS011;5288;42.334;23.876;2023-12-14T02:23:33;19.80;;;12.50;;
10481;SDS011;5288;42.334;23.876;2023-12-14T02:26:00;17.50;;;13.17;;
10481;SDS011;5288;42.334;23.876;2023-12-14T02:28:27;23.00;;;17.60;;
10481;SDS011;5288;42.334;23.876;2023-12-14T02:30:55;21.30;;;14.33;;
10481;SDS011;5288;42.334;23.876;2023-12-14T02:33:22;24.87;;;17.87;;
10481;SDS011;5288;42.334;23.876;2023-12-14T02:35:49;17.97;;;11.47;;
10481;SDS011;5288;42.334;23.876;2023-12-14T02:38:16;22.07;;;17.67;;
10481;SDS011;5288;42.334;23.876;2023-12-14T02:40:45;29.93;;;23.43;;
10481;SDS011;5288;42.334;23.876;2023-12-14T02:43:13;19.70;;;15.90;;
10481;SDS011;5288;42.334;23.876;2023-12-14T02:45:40;21.40;;;17.17;;
10481;SDS011;5288;42.334;23.876;2023-12-14T02:48:07;29.37;;;22.07;;
10481;SDS011;5288;42.334;23.876;2023-12-14T02:50:34;19.07;;;14.37;;
10481;SDS011;5288;42.334;23.876;2023-12-14T02:53:01;19.07;;;16.03;;
10481;SDS011;5288;42.334;23.876;2023-12-14T02:55:28;28.03;;;22.30;;
10481;SDS011;5288;42.334;23.876;2023-12-14T02:57:57;24.17;;;19.27;;
10481;SDS011;5288;42.334;23.876;2023-12-14T03:00:24;18.13;;;13.17;;
10481;SDS011;5288;42.334;23.876;2023-12-14T03:02:52;17.60;;;13.07;;
10481;SDS011;5288;42.334;23.876;2023-12-14T03:05:18;19.73;;;15.13;;
10481;SDS011;5288;42.334;23.876;2023-12-14T03:07:45;16.13;;;13.03;;
10481;SDS011;5288;42.334;23.876;2023-12-14T03:10:12;25.87;;;14.77;;
10481;SDS011;5288;42.334;23.876;2023-12-14T03:12:39;19.77;;;13.77;;
10481;SDS011;5288;42.334;23.876;2023-12-14T03:15:08;16.47;;;12.30;;
10481;SDS011;5288;42.334;23.876;2023-12-14T03:17:36;24.67;;;14.00;;
10481;SDS011;5288;42.334;23.876;2023-12-14T03:20:03;25.20;;;15.37;;
10481;SDS011;5288;42.334;23.876;2023-12-14T03:22:31;25.10;;;15.30;;
10481;SDS011;5288;42.334;23.876;2023-12-14T03:24:59;21.90;;;15.90;;
10481;SDS011;5288;42.334;23.876;2023-12-14T03:27:26;22.97;;;13.67;;
10481;SDS011;5288;42.334;23.876;2023-12-14T03:29:53;22.73;;;14.40;;
10481;SDS011;5288;42.334;23.876;2023-12-14T03:32:22;20.73;;;13.30;;
10481;SDS011;5288;42.334;23.876;2023-12-14T03:34:49;25.47;;;14.67;;
10481;SDS011;5288;42.334;23.876;2023-12-14T03:37:17;16.97;;;11.87;;
10481;SDS011;5288;42.334;23.876;2023-12-14T03:39:44;16.67;;;12.37;;
10481;SDS011;5288;42.334;23.876;2023-12-14T03:42:11;23.03;;;13.90;;
10481;SDS011;5288;42.334;23.876;2023-12-14T03:44:38;17.53;;;14.03;;
10481;SDS011;5288;42.334;23.876;2023-12-14T03:47:05;15.70;;;11.70;;
10481;SDS011;5288;42.334;23.876;2023-12-14T03:49:37;16.53;;;10.53;;
10481;SDS011;5288;42.334;23.876;2023-12-14T03:52:05;17.20;;;12.60;;
10481;SDS011;5288;42.334;23.876;2023-12-14T03:54:32;20.43;;;15.10;;
10481;SDS011;5288;42.334;23.876;2023-12-14T03:56:59;16.07;;;11.07;;
10481;SDS011;5288;42.334;23.876;2023-12-14T03:59:26;17.97;;;12.17;;
10481;SDS011;5288;42.334;23.876;2023-12-14T04:01:53;13.67;;;10.37;;
10481;SDS011;5288;42.334;23.876;2023-12-14T04:04:21;14.47;;;10.57;;
10481;SDS011;5288;42.334;23.876;2023-12-14T04:06:49;16.77;;;11.03;;
10481;SDS011;5288;42.334;23.876;2023-12-14T04:09:16;17.30;;;12.30;;
10481;SDS011;5288;42.334;23.876;2023-12-14T04:11:44;19.93;;;12.97;;
10481;SDS011;5288;42.334;23.876;2023-12-14T04:14:11;16.00;;;11.13;;
10481;SDS011;5288;42.334;23.876;2023-12-14T04:16:38;20.27;;;12.97;;
10481;SDS011;5288;42.334;23.876;2023-12-14T04:19:05;15.70;;;12.13;;
10481;SDS011;5288;42.334;23.876;2023-12-14T04:21:35;17.73;;;13.17;;
10481;SDS011;5288;42.334;23.876;2023-12-14T04:24:04;17.67;;;12.90;;
10481;SDS011;5288;42.334;23.876;2023-12-14T04:26:32;12.43;;;10.57;;
10481;SDS011;5288;42.334;23.876;2023-12-14T04:28:59;19.37;;;14.40;;
10481;SDS011;5288;42.334;23.876;2023-12-14T04:31:27;23.13;;;17.47;;
10481;SDS011;5288;42.334;23.876;2023-12-14T04:33:54;23.97;;;18.90;;
10481;SDS011;5288;42.334;23.876;2023-12-14T04:36:21;25.63;;;18.03;;
10481;SDS011;5288;42.334;23.876;2023-12-14T04:38:48;25.67;;;17.37;;
10481;SDS011;5288;42.334;23.876;2023-12-14T04:41:17;27.93;;;20.13;;
10481;SDS011;5288;42.334;23.876;2023-12-14T04:43:44;23.87;;;17.07;;
10481;SDS011;5288;42.334;23.876;2023-12-14T04:46:11;28.10;;;18.67;;
10481;SDS011;5288;42.334;23.876;2023-12-14T04:48:39;25.13;;;17.93;;
10481;SDS011;5288;42.334;23.876;2023-12-14T04:51:07;20.17;;;15.23;;
10481;SDS011;5288;42.334;23.876;2023-12-14T04:53:38;23.07;;;15.80;;
10481;SDS011;5288;42.334;23.876;2023-12-14T04:56:05;21.90;;;15.13;;
10481;SDS011;5288;42.334;23.876;2023-12-14T04:58:38;21.90;;;15.97;;
10481;SDS011;5288;42.334;23.876;2023-12-14T05:01:06;22.97;;;17.13;;
10481;SDS011;5288;42.334;23.876;2023-12-14T05:03:34;20.70;;;13.90;;
10481;SDS011;5288;42.334;23.876;2023-12-14T05:06:01;18.47;;;14.00;;
10481;SDS011;5288;42.334;23.876;2023-12-14T05:08:29;19.50;;;13.57;;
10481;SDS011;5288;42.334;23.876;2023-12-14T05:10:56;24.77;;;16.50;;
10481;SDS011;5288;42.334;23.876;2023-12-14T05:13:24;22.63;;;16.10;;
10481;SDS011;5288;42.334;23.876;2023-12-14T05:15:52;24.47;;;14.43;;
10481;SDS011;5288;42.334;23.876;2023-12-14T05:18:20;18.90;;;14.00;;
10481;SDS011;5288;42.334;23.876;2023-12-14T05:20:47;14.60;;;11.10;;
10481;SDS011;5288;42.334;23.876;2023-12-14T05:23:14;13.87;;;10.33;;
10481;SDS011;5288;42.334;23.876;2023-12-14T05:25:41;17.13;;;10.63;;
10481;SDS011;5288;42.334;23.876;2023-12-14T05:28:08;18.83;;;14.20;;
10481;SDS011;5288;42.334;23.876;2023-12-14T05:30:35;18.10;;;13.93;;
10481;SDS011;5288;42.334;23.876;2023-12-14T05:33:04;16.23;;;10.50;;
10481;SDS011;5288;42.334;23.876;2023-12-14T05:35:31;12.60;;;9.40;;
10481;SDS011;5288;42.334;23.876;2023-12-14T05:37:58;11.27;;;8.27;;
10481;SDS011;5288;42.334;23.876;2023-12-14T05:40:26;77.40;;;34.90;;
10481;SDS011;5288;42.334;23.876;2023-12-14T05:42:53;46.93;;;23.37;;
10481;SDS011;5288;42.334;23.876;2023-12-14T05:45:20;19.17;;;12.40;;
10481;SDS011;5288;42.334;23.876;2023-12-14T05:47:47;27.33;;;19.70;;
10481;SDS011;5288;42.334;23.876;2023-12-14T05:50:16;16.37;;;11.20;;
10481;SDS011;5288;42.334;23.876;2023-12-14T05:52:43;22.67;;;14.07;;
10481;SDS011;5288;42.334;23.876;2023-12-14T05:55:11;16.37;;;12.03;;
10481;SDS011;5288;42.334;23.876;2023-12-14T05:57:38;20.77;;;16.03;;
10481;SDS011;5288;42.334;23.876;2023-12-14T06:00:06;27.73;;;18.33;;
10481;SDS011;5288;42.334;23.876;2023-12-14T06:02:34;25.03;;;17.10;;
10481;SDS011;5288;42.334;23.876;2023-12-14T06:05:02;31.23;;;18.00;;
10481;SDS011;5288;42.334;23.876;2023-12-14T06:07:31;31.03;;;15.77;;
10481;SDS011;5288;42.334;23.876;2023-12-14T06:09:58;21.83;;;15.03;;
10481;SDS011;5288;42.334;23.876;2023-12-14T06:12:26;12.57;;;9.77;;
10481;SDS011;5288;42.334;23.876;2023-12-14T06:14:53;13.93;;;10.73;;
10481;SDS011;5288;42.334;23.876;2023-12-14T06:17:21;24.57;;;15.57;;
10481;SDS011;5288;42.334;23.876;2023-12-14T06:19:48;37.73;;;30.00;;
10481;SDS011;5288;42.334;23.876;2023-12-14T06:22:15;45.53;;;33.93;;
10481;SDS011;5288;42.334;23.876;2023-12-14T06:24:44;50.67;;;36.10;;
10481;SDS011;5288;42.334;23.876;2023-12-14T06:27:11;38.43;;;29.93;;
10481;SDS011;5288;42.334;23.876;2023-12-14T06:29:38;43.33;;;33.73;;
10481;SDS011;5288;42.334;23.876;2023-12-14T06:32:06;49.03;;;38.93;;
10481;SDS011;5288;42.334;23.876;2023-12-14T06:34:33;43.97;;;33.23;;
10481;SDS011;5288;42.334;23.876;2023-12-14T06:37:00;39.07;;;28.43;;
10481;SDS011;5288;42.334;23.876;2023-12-14T06:39:28;30.23;;;22.90;;
10481;SDS011;5288;42.334;23.876;2023-12-14T06:41:56;37.87;;;28.80;;
10481;SDS011;5288;42.334;23.876;2023-12-14T06:44:24;60.87;;;40.73;;
10481;SDS011;5288;42.334;23.876;2023-12-14T06:46:53;85.33;;;53.77;;
10481;SDS011;5288;42.334;23.876;2023-12-14T06:49:20;70.87;;;46.90;;
10481;SDS011;5288;42.334;23.876;2023-12-14T06:51:47;45.30;;;35.20;;
10481;SDS011;5288;42.334;23.876;2023-12-14T06:54:14;69.43;;;49.17;;
10481;SDS011;5288;42.334;23.876;2023-12-14T06:56:42;70.27;;;49.50;;
10481;SDS011;5288;42.334;23.876;2023-12-14T06:59:10;51.60;;;36.67;;
10481;SDS011;5288;42.334;23.876;2023-12-14T07:01:37;58.87;;;42.77;;
10481;SDS011;5288;42.334;23.876;2023-12-14T07:04:05;64.20;;;46.00;;
10481;SDS011;5288;42.334;23.876;2023-12-14T07:06:33;64.77;;;49.37;;
10481;SDS011;5288;42.334;23.876;2023-12-14T07:09:01;46.57;;;35.17;;
10481;SDS011;5288;42.334;23.876;2023-12-14T07:11:28;102.33;;;63.47;;
10481;SDS011;5288;42.334;23.876;2023-12-14T07:13:55;54.80;;;40.13;;
10481;SDS011;5288;42.334;23.876;2023-12-14T07:16:24;45.47;;;36.77;;
10481;SDS011;5288;42.334;23.876;2023-12-14T07:18:51;51.83;;;39.47;;
10481;SDS011;5288;42.334;23.876;2023-12-14T07:21:18;44.67;;;35.87;;
10481;SDS011;5288;42.334;23.876;2023-12-14T07:23:45;29.37;;;24.00;;
10481;SDS011;5288;42.334;23.876;2023-12-14T07:26:12;33.43;;;27.03;;
10481;SDS011;5288;42.334;23.876;2023-12-14T07:28:39;36.33;;;24.03;;
10481;SDS011;5288;42.334;23.876;2023-12-14T07:31:07;33.87;;;26.97;;
10481;SDS011;5288;42.334;23.876;2023-12-14T07:33:35;38.40;;;31.87;;
10481;SDS011;5288;42.334;23.876;2023-12-14T07:36:03;43.03;;;32.77;;
10481;SDS011;5288;42.334;23.876;2023-12-14T07:38:31;43.87;;;33.33;;
10481;SDS011;5288;42.334;23.876;2023-12-14T07:40:58;42.27;;;30.53;;
10481;SDS011;5288;42.334;23.876;2023-12-14T07:43:25;36.83;;;27.17;;
10481;SDS011;5288;42.334;23.876;2023-12-14T07:45:52;39.30;;;30.30;;
10481;SDS011;5288;42.334;23.876;2023-12-14T07:48:20;43.37;;;33.17;;
10481;SDS011;5288;42.334;23.876;2023-12-14T07:50:48;43.47;;;34.33;;
10481;SDS011;5288;42.334;23.876;2023-12-14T07:53:17;43.50;;;33.30;;
10481;SDS011;5288;42.334;23.876;2023-12-14T07:55:44;42.90;;;33.53;;
10481;SDS011;5288;42.334;23.876;2023-12-14T07:58:11;44.30;;;32.10;;
10481;SDS011;5288;42.334;23.876;2023-12-14T08:00:39;39.10;;;30.23;;
10481;SDS011;5288;42.334;23.876;2023-12-14T08:03:06;44.90;;;36.60;;
10481;SDS011;5288;42.334;23.876;2023-12-14T08:05:33;45.60;;;37.03;;
10481;SDS011;5288;42.334;23.876;2023-12-14T08:08:02;47.13;;;38.13;;
10481;SDS011;5288;42.334;23.876;2023-12-14T08:10:29;44.83;;;35.07;;
10481;SDS011;5288;42.334;23.876;2023-12-14T08:12:57;40.60;;;32.90;;
10481;SDS011;5288;42.334;23.876;2023-12-14T08:15:24;46.13;;;34.67;;
10481;SDS011;5288;42.334;23.876;2023-12-14T08:17:51;50.33;;;35.87;;
10481;SDS011;5288;42.334;23.876;2023-12-14T08:20:18;40.43;;;30.87;;
10481;SDS011;5288;42.334;23.876;2023-12-14T08:22:46;51.43;;;34.53;;
10481;SDS011;5288;42.334;23.876;2023-12-14T08:25:14;37.53;;;29.03;;
10481;SDS011;5288;42.334;23.876;2023-12-14T08:27:42;33.43;;;26.60;;
10481;SDS011;5288;42.334;23.876;2023-12-14T08:30:10;37.77;;;25.67;;
10481;SDS011;5288;42.334;23.876;2023-12-14T08:32:38;43.27;;;26.93;;
10481;SDS011;5288;42.334;23.876;2023-12-14T08:35:06;33.43;;;25.53;;
10481;SDS011;5288;42.334;23.876;2023-12-14T08:37:34;37.77;;;25.93;;
10481;SDS011;5288;42.334;23.876;2023-12-14T08:40:02;194.60;;;106.93;;
10481;SDS011;5288;42.334;23.876;2023-12-14T08:42:31;43.80;;;28.50;;
10481;SDS011;5288;42.334;23.876;2023-12-14T08:44:58;31.70;;;24.43;;
10481;SDS011;5288;42.334;23.876;2023-12-14T08:47:25;30.87;;;22.70;;
10481;SDS011;5288;42.334;23.876;2023-12-14T08:49:53;28.53;;;21.80;;
10481;SDS011;5288;42.334;23.876;2023-12-14T08:52:20;34.83;;;26.77;;
10481;SDS011;5288;42.334;23.876;2023-12-14T08:54:47;33.27;;;25.33;;
10481;SDS011;5288;42.334;23.876;2023-12-14T08:57:14;42.07;;;35.63;;
10481;SDS011;5288;42.334;23.876;2023-12-14T08:59:43;33.57;;;26.97;;
10481;SDS011;5288;42.334;23.876;2023-12-14T09:02:10;34.03;;;28.37;;
10481;SDS011;5288;42.334;23.876;2023-12-14T09:04:37;39.93;;;31.17;;
10481;SDS011;5288;42.334;23.876;2023-12-14T09:07:04;32.73;;;27.67;;
10481;SDS011;5288;42.334;23.876;2023-12-14T09:09:32;36.93;;;29.80;;
10481;SDS011;5288;42.334;23.876;2023-12-14T09:11:59;28.87;;;23.23;;
10481;SDS011;5288;42.334;23.876;2023-12-14T09:14:26;25.43;;;20.27;;
10481;SDS011;5288;42.334;23.876;2023-12-14T09:16:55;27.60;;;20.23;;
10481;SDS011;5288;42.334;23.876;2023-12-14T09:19:22;27.23;;;20.73;;
10481;SDS011;5288;42.334;23.876;2023-12-14T09:21:49;23.63;;;19.13;;
10481;SDS011;5288;42.334;23.876;2023-12-14T09:24:16;24.67;;;20.73;;
10481;SDS011;5288;42.334;23.876;2023-12-14T09:26:44;23.70;;;19.03;;
10481;SDS011;5288;42.334;23.876;2023-12-14T09:29:11;23.90;;;17.60;;
10481;SDS011;5288;42.334;23.876;2023-12-14T09:31:40;24.27;;;19.90;;
10481;SDS011;5288;42.334;23.876;2023-12-14T09:34:10;23.20;;;18.27;;
10481;SDS011;5288;42.334;23.876;2023-12-14T09:36:37;22.37;;;17.43;;
10481;SDS011;5288;42.334;23.876;2023-12-14T09:39:05;25.23;;;19.17;;
10481;SDS011;5288;42.334;23.876;2023-12-14T09:41:35;25.00;;;18.40;;
10481;SDS011;5288;42.334;23.876;2023-12-14T09:44:03;19.03;;;16.10;;
10481;SDS011;5288;42.334;23.876;2023-12-14T09:46:31;25.57;;;18.43;;
10481;SDS011;5288;42.334;23.876;2023-12-14T09:48:59;29.83;;;17.63;;
10481;SDS011;5288;42.334;23.876;2023-12-14T09:51:29;21.37;;;18.17;;
10481;SDS011;5288;42.334;23.876;2023-12-14T09:53:57;22.50;;;17.27;;
10481;SDS011;5288;42.334;23.876;2023-12-14T09:56:24;30.77;;;17.67;;
10481;SDS011;5288;42.334;23.876;2023-12-14T09:58:52;23.30;;;16.30;;
10481;SDS011;5288;42.334;23.876;2023-12-14T10:01:22;22.57;;;16.73;;
10481;SDS011;5288;42.334;23.876;2023-12-14T10:03:50;26.70;;;17.90;;
10481;SDS011;5288;42.334;23.876;2023-12-14T10:06:17;25.50;;;17.30;;
10481;SDS011;5288;42.334;23.876;2023-12-14T10:08:54;22.43;;;17.57;;
10481;SDS011;5288;42.334;23.876;2023-12-14T10:11:22;18.30;;;12.63;;
10481;SDS011;5288;42.334;23.876;2023-12-14T10:13:49;25.27;;;12.67;;
10481;SDS011;5288;42.334;23.876;2023-12-14T10:16:29;19.60;;;14.57;;
10481;SDS011;5288;42.334;23.876;2023-12-14T10:18:56;18.37;;;14.03;;
10481;SDS011;5288;42.334;23.876;2023-12-14T10:21:24;18.33;;;13.17;;
10481;SDS011;5288;42.334;23.876;2023-12-14T10:23:52;16.00;;;12.67;;
10481;SDS011;5288;42.334;23.876;2023-12-14T10:26:23;24.47;;;12.10;;
10481;SDS011;5288;42.334;23.876;2023-12-14T10:28:51;29.20;;;16.17;;
10481;SDS011;5288;42.334;23.876;2023-12-14T10:31:19;33.50;;;24.67;;
10481;SDS011;5288;42.334;23.876;2023-12-14T10:33:47;36.80;;;27.60;;
10481;SDS011;5288;42.334;23.876;2023-12-14T10:36:14;43.07;;;30.37;;
10481;SDS011;5288;42.334;23.876;2023-12-14T10:38:45;36.53;;;26.47;;
10481;SDS011;5288;42.334;23.876;2023-12-14T10:41:16;38.83;;;27.10;;
10481;SDS011;5288;42.334;23.876;2023-12-14T10:43:44;42.57;;;31.13;;
10481;SDS011;5288;42.334;23.876;2023-12-14T10:46:13;67.13;;;39.03;;
10481;SDS011;5288;42.334;23.876;2023-12-14T10:48:41;53.40;;;36.77;;
10481;SDS011;5288;42.334;23.876;2023-12-14T10:51:11;48.13;;;38.73;;
10481;SDS011;5288;42.334;23.876;2023-12-14T10:53:39;57.27;;;38.27;;
10481;SDS011;5288;42.334;23.876;2023-12-14T10:56:09;48.30;;;34.93;;
10481;SDS011;5288;42.334;23.876;2023-12-14T10:58:50;48.47;;;33.97;;
10481;SDS011;5288;42.334;23.876;2023-12-14T11:01:18;48.50;;;34.50;;
10481;SDS011;5288;42.334;23.876;2023-12-14T11:03:47;41.00;;;28.93;;
10481;SDS011;5288;42.334;23.876;2023-12-14T11:06:21;41.27;;;26.80;;
10481;SDS011;5288;42.334;23.876;2023-12-14T11:08:56;60.10;;;31.40;;
10481;SDS011;5288;42.334;23.876;2023-12-14T11:11:27;54.10;;;31.60;;
10481;SDS011;5288;42.334;23.876;2023-12-14T11:13:57;39.33;;;29.23;;
10481;SDS011;5288;42.334;23.876;2023-12-14T11:16:25;44.87;;;29.30;;
10481;SDS011;5288;42.334;23.876;2023-12-14T11:21:56;39.50;;;27.17;;
10481;SDS011;5288;42.334;23.876;2023-12-14T11:24:37;40.97;;;27.57;;
10481;SDS011;5288;42.334;23.876;2023-12-14T11:27:08;68.70;;;30.50;;
10481;SDS011;5288;42.334;23.876;2023-12-14T11:29:37;34.03;;;26.13;;
10481;SDS011;5288;42.334;23.876;2023-12-14T11:32:07;29.77;;;23.07;;
10481;SDS011;5288;42.334;23.876;2023-12-14T11:34:33;30.30;;;21.80;;
10481;SDS011;5288;42.334;23.876;2023-12-14T11:37:00;21.10;;;16.93;;
10481;SDS011;5288;42.334;23.876;2023-12-14T11:39:29;18.87;;;13.77;;
10481;SDS011;5288;42.334;23.876;2023-12-14T11:42:00;16.60;;;12.03;;
10481;SDS011;5288;42.334;23.876;2023-12-14T11:44:29;36.20;;;13.83;;
10481;SDS011;5288;42.334;23.876;2023-12-14T11:46:58;27.83;;;13.63;;
10481;SDS011;5288;42.334;23.876;2023-12-14T11:49:25;26.17;;;18.50;;
10481;SDS011;5288;42.334;23.876;2023-12-14T11:51:52;34.03;;;24.87;;
10481;SDS011;5288;42.334;23.876;2023-12-14T11:54:21;95.67;;;57.63;;
10481;SDS011;5288;42.334;23.876;2023-12-14T11:56:49;61.73;;;37.97;;
10481;SDS011;5288;42.334;23.876;2023-12-14T11:59:17;40.47;;;26.27;;
10481;SDS011;5288;42.334;23.876;2023-12-14T12:01:55;44.37;;;25.60;;
10481;SDS011;5288;42.334;23.876;2023-12-14T12:04:25;46.17;;;26.23;;
10481;SDS011;5288;42.334;23.876;2023-12-14T12:07:02;34.90;;;25.33;;
10481;SDS011;5288;42.334;23.876;2023-12-14T12:09:34;32.33;;;21.97;;
10481;SDS011;5288;42.334;23.876;2023-12-14T12:12:05;30.93;;;20.53;;
10481;SDS011;5288;42.334;23.876;2023-12-14T12:14:33;30.17;;;20.50;;
10481;SDS011;5288;42.334;23.876;2023-12-14T12:17:02;38.57;;;28.17;;
10481;SDS011;5288;42.334;23.876;2023-12-14T12:19:31;62.03;;;23.27;;
10481;SDS011;5288;42.334;23.876;2023-12-14T12:21:59;33.37;;;22.50;;
10481;SDS011;5288;42.334;23.876;2023-12-14T12:24:27;30.27;;;20.23;;
10481;SDS011;5288;42.334;23.876;2023-12-14T12:26:54;35.43;;;24.37;;
10481;SDS011;5288;42.334;23.876;2023-12-14T12:29:21;69.57;;;25.53;;
10481;SDS011;5288;42.334;23.876;2023-12-14T12:31:48;68.43;;;29.00;;
10481;SDS011;5288;42.334;23.876;2023-12-14T12:34:18;26.10;;;14.97;;
10481;SDS011;5288;42.334;23.876;2023-12-14T12:36:45;14.23;;;9.77;;
10481;SDS011;5288;42.334;23.876;2023-12-14T12:39:12;16.07;;;11.17;;
10481;SDS011;5288;42.334;23.876;2023-12-14T12:41:40;20.60;;;13.03;;
10481;SDS011;5288;42.334;23.876;2023-12-14T12:44:07;23.03;;;15.40;;
10481;SDS011;5288;42.334;23.876;2023-12-14T12:46:35;50.10;;;20.57;;
10481;SDS011;5288;42.334;23.876;2023-12-14T12:49:03;26.43;;;20.63;;
10481;SDS011;5288;42.334;23.876;2023-12-14T12:51:32;32.73;;;24.30;;
10481;SDS011;5288;42.334;23.876;2023-12-14T12:54:00;39.93;;;25.10;;
10481;SDS011;5288;42.334;23.876;2023-12-14T12:56:29;28.37;;;23.00;;
10481;SDS011;5288;42.334;23.876;2023-12-14T12:58:56;32.33;;;24.23;;
10481;SDS011;5288;42.334;23.876;2023-12-14T13:01:23;29.23;;;23.63;;
10481;SDS011;5288;42.334;23.876;2023-12-14T13:03:52;38.70;;;28.83;;
10481;SDS011;5288;42.334;23.876;2023-12-14T13:06:22;30.10;;;24.73;;
10481;SDS011;5288;42.334;23.876;2023-12-14T13:08:53;27.83;;;23.73;;
10481;SDS011;5288;42.334;23.876;2023-12-14T13:11:20;28.73;;;23.83;;
10481;SDS011;5288;42.334;23.876;2023-12-14T13:13:47;33.33;;;26.70;;
10481;SDS011;5288;42.334;23.876;2023-12-14T13:16:15;34.50;;;29.77;;
10481;SDS011;5288;42.334;23.876;2023-12-14T13:18:42;33.53;;;29.03;;
10481;SDS011;5288;42.334;23.876;2023-12-14T13:21:11;41.33;;;35.20;;
10481;SDS011;5288;42.334;23.876;2023-12-14T13:23:38;59.20;;;47.73;;
10481;SDS011;5288;42.334;23.876;2023-12-14T13:26:07;37.40;;;30.83;;
10481;SDS011;5288;42.334;23.876;2023-12-14T13:28:34;47.37;;;33.67;;
10481;SDS011;5288;42.334;23.876;2023-12-14T13:31:01;65.60;;;32.10;;
10481;SDS011;5288;42.334;23.876;2023-12-14T13:33:29;39.67;;;25.70;;
10481;SDS011;5288;42.334;23.876;2023-12-14T13:35:56;39.27;;;28.57;;
10481;SDS011;5288;42.334;23.876;2023-12-14T13:38:23;42.83;;;29.40;;
10481;SDS011;5288;42.334;23.876;2023-12-14T13:40:50;29.20;;;23.57;;
10481;SDS011;5288;42.334;23.876;2023-12-14T13:43:19;64.20;;;46.47;;
10481;SDS011;5288;42.334;23.876;2023-12-14T13:45:47;41.83;;;33.77;;
10481;SDS011;5288;42.334;23.876;2023-12-14T13:48:17;42.23;;;27.70;;
10481;SDS011;5288;42.334;23.876;2023-12-14T13:50:45;44.90;;;35.37;;
10481;SDS011;5288;42.334;23.876;2023-12-14T13:53:12;34.77;;;23.03;;
10481;SDS011;5288;42.334;23.876;2023-12-14T13:55:39;22.13;;;18.63;;
10481;SDS011;5288;42.334;23.876;2023-12-14T13:58:06;26.30;;;20.13;;
10481;SDS011;5288;42.334;23.876;2023-12-14T14:00:35;8.97;;;7.30;;
10481;SDS011;5288;42.334;23.876;2023-12-14T14:03:02;12.03;;;9.60;;
10481;SDS011;5288;42.334;23.876;2023-12-14T14:05:30;20.23;;;13.10;;
10481;SDS011;5288;42.334;23.876;2023-12-14T14:07:58;14.83;;;12.97;;
10481;SDS011;5288;42.334;23.876;2023-12-14T14:10:25;28.73;;;19.77;;
10481;SDS011;5288;42.334;23.876;2023-12-14T14:12:52;20.83;;;15.57;;
10481;SDS011;5288;42.334;23.876;2023-12-14T14:15:19;23.07;;;17.50;;
10481;SDS011;5288;42.334;23.876;2023-12-14T14:17:48;36.70;;;30.07;;
10481;SDS011;5288;42.334;23.876;2023-12-14T14:20:17;29.23;;;22.97;;
10481;SDS011;5288;42.334;23.876;2023-12-14T14:22:44;12.17;;;7.23;;
10481;SDS011;5288;42.334;23.876;2023-12-14T14:25:12;20.40;;;18.33;;
10481;SDS011;5288;42.334;23.876;2023-12-14T14:27:39;25.80;;;21.17;;